createdAt,value
2023-01-04T00:01:35.176Z,62.30
2023-01-04T00:04:03.563Z,69.50
2023-01-04T00:06:32.105Z,71.90
2023-01-04T00:09:00.524Z,73.40
2023-01-04T00:11:29.165Z,74.60
2023-01-04T00:13:57.940Z,66.80
2023-01-04T00:16:26.617Z,63.50
2023-01-04T00:18:56.081Z,65.30
2023-01-04T00:21:29.991Z,70.50
2023-01-04T00:24:00.656Z,72.70
2023-01-04T00:26:31.854Z,74.30
2023-01-04T00:29:06.882Z,74.50
2023-01-04T00:31:36.108Z,66.40
2023-01-04T00:34:05.963Z,63.50
2023-01-04T00:36:35.358Z,68.30
2023-01-04T00:39:04.395Z,71.70
2023-01-04T00:41:57.576Z,73.60
2023-01-04T00:44:23.150Z,75.10
2023-01-04T00:46:51.602Z,67.10
2023-01-04T00:49:19.971Z,64.10
2023-01-04T00:51:48.383Z,68.10
2023-01-04T00:54:17.096Z,72.00
2023-01-04T00:56:46.146Z,73.90
2023-01-04T00:59:17.280Z,75.20
2023-01-04T01:01:45.912Z,69.40
2023-01-04T01:04:15.194Z,64.70
2023-01-04T01:06:43.519Z,62.90
2023-01-04T01:09:12.581Z,70.10
2023-01-04T01:11:41.395Z,72.60
2023-01-04T01:14:14.433Z,74.10
2023-01-04T01:16:55.060Z,75.40
2023-01-04T01:19:27.025Z,68.30
2023-01-04T01:21:55.605Z,64.50
2023-01-04T01:24:23.974Z,67.70
2023-01-04T01:26:52.350Z,71.80
2023-01-04T01:29:20.724Z,74.10
2023-01-04T01:31:49.069Z,75.30
2023-01-04T01:34:17.423Z,70.80
2023-01-04T01:36:45.800Z,65.70
2023-01-04T01:39:14.319Z,63.70
2023-01-04T01:41:42.620Z,70.90
2023-01-04T01:44:14.047Z,73.20
2023-01-04T01:46:53.181Z,74.90
2023-01-04T01:49:29.437Z,77.10
2023-01-04T01:52:00.481Z,72.10
2023-01-04T01:54:37.659Z,65.90
2023-01-04T01:57:08.078Z,65.40
2023-01-04T01:59:41.259Z,72.00
2023-01-04T02:02:11.264Z,74.10
2023-01-04T02:04:43.858Z,75.70
2023-01-04T02:07:15.303Z,76.90
2023-01-04T02:09:44.945Z,71.10
2023-01-04T02:12:14.645Z,66.20
2023-01-04T02:14:46.296Z,67.00
2023-01-04T02:17:29.683Z,72.70
2023-01-04T02:20:30.262Z,75.00
2023-01-04T02:23:01.418Z,76.30
2023-01-04T02:25:55.474Z,74.90
2023-01-04T02:28:42.096Z,67.10
2023-01-04T02:31:47.459Z,64.50
2023-01-04T02:34:46.136Z,71.90
2023-01-04T02:37:44.989Z,74.80
2023-01-04T02:40:28.661Z,77.30
2023-01-04T02:43:15.577Z,77.60
2023-01-04T02:46:00.503Z,68.50
2023-01-04T02:48:37.059Z,65.50
2023-01-04T02:51:05.467Z,71.90
2023-01-04T02:53:40.604Z,74.60
2023-01-04T02:56:27.044Z,75.80
2023-01-04T02:59:15.827Z,77.30
2023-01-04T03:01:51.332Z,72.80
2023-01-04T03:04:28.684Z,67.30
2023-01-04T03:07:06.304Z,66.90
2023-01-04T03:09:39.351Z,73.10
2023-01-04T03:12:13.060Z,74.90
2023-01-04T03:14:51.433Z,76.50
2023-01-04T03:17:23.124Z,78.10
2023-01-04T03:19:53.842Z,70.30
2023-01-04T03:22:33.082Z,66.20
2023-01-04T03:25:03.984Z,68.50
2023-01-04T03:27:32.384Z,73.50
2023-01-04T03:30:06.505Z,75.40
2023-01-04T03:32:51.540Z,76.60
2023-01-04T03:35:25.066Z,78.30
2023-01-04T03:38:02.235Z,71.70
2023-01-04T03:40:33.450Z,66.60
2023-01-04T03:43:18.347Z,68.80
2023-01-04T03:45:59.180Z,73.80
2023-01-04T03:48:51.193Z,75.80
2023-01-04T03:51:26.321Z,77.20
2023-01-04T03:54:07.555Z,76.50
2023-01-04T03:56:39.984Z,68.10
2023-01-04T03:59:10.154Z,66.50
2023-01-04T04:01:39.172Z,73.10
2023-01-04T04:04:07.566Z,75.00
2023-01-04T04:06:35.803Z,77.50
2023-01-04T04:09:04.804Z,78.30
2023-01-04T04:11:33.432Z,76.90
2023-01-04T04:14:02.092Z,69.30
2023-01-04T04:16:30.268Z,66.40
2023-01-04T04:19:01.861Z,72.60
2023-01-04T04:21:33.048Z,75.20
2023-01-04T04:24:01.234Z,76.90
2023-01-04T04:26:29.529Z,78.50
2023-01-04T04:28:57.918Z,79.60
2023-01-04T04:31:26.370Z,71.70
2023-01-04T04:33:54.590Z,67.40
2023-01-04T04:36:22.743Z,70.50
2023-01-04T04:38:51.096Z,75.10
2023-01-04T04:41:19.321Z,76.50
2023-01-04T04:43:47.716Z,77.80
2023-01-04T04:46:15.863Z,79.00
2023-01-04T04:48:44.105Z,73.70
2023-01-04T04:51:12.480Z,68.50
2023-01-04T04:53:40.632Z,69.60
2023-01-04T04:56:09.621Z,74.40
2023-01-04T04:58:38.397Z,77.20
2023-01-04T05:01:06.758Z,78.50
2023-01-04T05:03:35.602Z,79.50
2023-01-04T05:06:03.578Z,77.00
2023-01-04T05:08:32.023Z,69.70
2023-01-04T05:11:00.357Z,67.00
2023-01-04T05:13:28.664Z,73.80
2023-01-04T05:15:56.880Z,76.30
2023-01-04T05:18:25.269Z,78.00
2023-01-04T05:20:53.421Z,79.40
2023-01-04T05:23:22.819Z,80.20
2023-01-04T05:26:01.746Z,71.80
2023-01-04T05:28:30.118Z,68.00
2023-01-04T05:30:58.274Z,73.70
2023-01-04T05:33:30.028Z,76.50
2023-01-04T05:36:00.373Z,78.30
2023-01-04T05:38:29.433Z,79.70
2023-01-04T05:40:58.101Z,80.70
2023-01-04T05:43:25.987Z,76.20
2023-01-04T05:45:57.342Z,70.60
2023-01-04T05:48:26.067Z,70.90
2023-01-04T05:50:54.085Z,76.50
2023-01-04T05:53:22.281Z,79.30
2023-01-04T05:55:50.631Z,80.00
2023-01-04T05:58:18.817Z,80.80
2023-01-04T06:00:47.073Z,80.50
2023-01-04T06:03:15.557Z,71.80
2023-01-04T06:05:43.751Z,68.70
2023-01-04T06:08:12.258Z,74.60
2023-01-04T06:10:40.575Z,77.10
2023-01-04T06:13:08.848Z,78.90
2023-01-04T06:15:42.832Z,80.20
2023-01-04T06:18:13.828Z,81.10
2023-01-04T06:20:43.956Z,80.60
2023-01-04T06:23:12.445Z,71.60
2023-01-04T06:25:40.752Z,68.60
2023-01-04T06:28:08.939Z,74.80
2023-01-04T06:30:37.210Z,77.40
2023-01-04T06:33:05.316Z,78.60
2023-01-04T06:35:33.608Z,80.00
2023-01-04T06:38:01.878Z,81.30
2023-01-04T06:40:30.016Z,82.10
2023-01-04T06:42:58.331Z,73.80
2023-01-04T06:45:26.600Z,69.60
2023-01-04T06:47:54.914Z,73.70
2023-01-04T06:50:24.443Z,77.10
2023-01-04T06:52:52.786Z,78.80
2023-01-04T06:55:21.063Z,80.20
2023-01-04T06:57:49.384Z,81.80
2023-01-04T07:00:18.269Z,81.90
2023-01-04T07:03:14.632Z,74.90
2023-01-04T07:05:34.837Z,74.30
2023-01-04T07:08:07.971Z,81.80
2023-01-04T07:10:37.093Z,85.10
2023-01-04T07:13:05.314Z,87.20
2023-01-04T07:15:37.094Z,85.30
2023-01-04T07:18:10.084Z,79.60
2023-01-04T07:20:39.325Z,75.40
2023-01-04T07:23:08.620Z,81.20
2023-01-04T07:25:37.140Z,83.50
2023-01-04T07:28:05.393Z,84.40
2023-01-04T07:30:33.820Z,85.70
2023-01-04T07:33:02.165Z,80.90
2023-01-04T07:35:30.418Z,74.80
2023-01-04T07:37:59.348Z,75.50
2023-01-04T07:40:28.318Z,80.30
2023-01-04T07:43:00.292Z,81.90
2023-01-04T07:45:28.460Z,82.90
2023-01-04T07:47:58.174Z,84.00
2023-01-04T07:50:26.544Z,81.00
2023-01-04T07:52:55.126Z,74.10
2023-01-04T07:55:23.254Z,74.80
2023-01-04T07:57:54.185Z,80.00
2023-01-04T08:00:22.629Z,82.20
2023-01-04T08:02:51.237Z,83.20
2023-01-04T08:05:19.345Z,84.00
2023-01-04T08:07:47.673Z,85.20
2023-01-04T08:10:16.070Z,76.40
2023-01-04T08:12:44.263Z,72.90
2023-01-04T08:15:12.596Z,79.70
2023-01-04T08:17:40.827Z,82.40
2023-01-04T08:20:09.521Z,84.00
2023-01-04T08:22:37.371Z,84.50
2023-01-04T08:25:06.347Z,85.20
2023-01-04T08:27:34.836Z,76.40
2023-01-04T08:30:03.414Z,73.10
2023-01-04T08:32:31.714Z,78.30
2023-01-04T08:34:59.945Z,80.90
2023-01-04T08:37:28.149Z,82.30
2023-01-04T08:39:56.313Z,83.40
2023-01-04T08:42:30.672Z,84.10
2023-01-04T08:45:00.456Z,79.20
2023-01-04T08:47:33.599Z,73.20
2023-01-04T08:50:08.262Z,75.20
2023-01-04T08:52:39.066Z,79.40
2023-01-04T08:55:12.711Z,80.90
2023-01-04T08:57:42.425Z,82.40
2023-01-04T09:00:11.537Z,83.40
2023-01-04T09:02:39.840Z,79.40
2023-01-04T09:05:08.747Z,73.10
2023-01-04T09:07:37.142Z,73.30
2023-01-04T09:10:05.789Z,78.70
2023-01-04T09:12:34.172Z,80.40
2023-01-04T09:15:02.622Z,82.10
2023-01-04T09:17:31.045Z,83.00
2023-01-04T09:19:59.277Z,83.10
2023-01-04T09:22:27.623Z,74.50
2023-01-04T09:24:55.824Z,71.70
2023-01-04T09:27:24.111Z,76.80
2023-01-04T09:29:52.406Z,79.40
2023-01-04T09:32:20.584Z,81.20
2023-01-04T09:34:48.974Z,82.10
2023-01-04T09:37:17.076Z,83.20
2023-01-04T09:39:45.399Z,78.90
2023-01-04T09:42:37.501Z,73.20
2023-01-04T09:45:25.798Z,73.90
2023-01-04T09:47:54.232Z,79.00
2023-01-04T09:50:28.034Z,80.70
2023-01-04T09:53:09.495Z,81.90
2023-01-04T09:55:44.371Z,83.10
2023-01-04T09:58:31.092Z,82.80
2023-01-04T10:01:36.206Z,74.20
2023-01-04T10:04:25.863Z,71.20
2023-01-04T10:06:58.062Z,78.50
2023-01-04T10:09:29.553Z,80.10
2023-01-04T10:12:27.773Z,81.50
2023-01-04T10:14:59.123Z,82.90
2023-01-04T10:18:29.858Z,76.00
2023-01-04T10:23:49.264Z,76.50
2023-01-04T10:26:39.276Z,79.80
2023-01-04T10:29:26.091Z,81.20
2023-01-04T10:32:19.802Z,82.50
2023-01-04T10:34:49.202Z,74.20
2023-01-04T10:37:26.792Z,70.90
2023-01-04T10:39:58.150Z,75.00
2023-01-04T10:42:57.233Z,78.50
2023-01-04T10:45:47.933Z,80.10
2023-01-04T10:48:19.266Z,81.30
2023-01-04T10:51:09.845Z,78.50
2023-01-04T10:54:08.587Z,72.20
2023-01-04T10:56:42.655Z,73.00
2023-01-04T10:59:33.676Z,78.50
2023-01-04T11:02:10.901Z,80.40
2023-01-04T11:04:48.798Z,81.70
2023-01-04T11:07:22.619Z,80.50
2023-01-04T11:10:15.720Z,73.10
2023-01-04T11:12:44.168Z,70.40
2023-01-04T11:15:12.760Z,76.20
2023-01-04T11:17:43.025Z,78.70
2023-01-04T11:20:12.188Z,80.60
2023-01-04T11:23:24.960Z,81.70
2023-01-04T11:26:25.819Z,75.60
2023-01-04T11:29:07.672Z,70.80
2023-01-04T11:31:55.147Z,74.30
2023-01-04T11:34:50.951Z,78.40
2023-01-04T11:37:29.288Z,80.40
2023-01-04T11:40:19.069Z,81.70
2023-01-04T11:42:53.080Z,73.70
2023-01-04T11:45:28.954Z,70.20
2023-01-04T11:47:59.095Z,74.00
2023-01-04T11:50:42.189Z,77.30
2023-01-04T11:53:32.416Z,79.10
2023-01-04T11:56:25.105Z,80.80
2023-01-04T11:59:24.565Z,77.00
2023-01-04T12:02:42.760Z,70.90
2023-01-04T12:05:29.593Z,70.20
2023-01-04T12:07:58.977Z,76.90
2023-01-04T12:10:28.165Z,78.60
2023-01-04T12:12:59.767Z,80.10
2023-01-04T12:15:45.883Z,80.20
2023-01-04T12:18:21.843Z,72.50
2023-01-04T12:20:50.251Z,68.90
2023-01-04T12:23:19.249Z,73.90
2023-01-04T12:25:51.703Z,77.20
2023-01-04T12:28:38.633Z,78.70
2023-01-04T12:31:22.580Z,79.90
2023-01-04T12:33:53.520Z,76.20
2023-01-04T12:36:50.855Z,70.60
2023-01-04T12:39:22.325Z,68.20
2023-01-04T12:41:50.583Z,75.20
2023-01-04T12:44:37.709Z,77.10
2023-01-04T12:47:31.673Z,78.60
2023-01-04T12:50:01.242Z,78.80
2023-01-04T12:52:37.788Z,70.60
2023-01-04T12:55:40.587Z,68.30
2023-01-04T12:58:49.694Z,72.20
2023-01-04T13:01:29.148Z,75.90
2023-01-04T13:04:06.080Z,77.90
2023-01-04T13:06:45.521Z,77.70
2023-01-04T13:09:24.570Z,69.90
2023-01-04T13:12:37.144Z,67.60
2023-01-04T13:15:19.725Z,70.20
2023-01-04T13:17:48.457Z,74.90
2023-01-04T13:20:23.228Z,76.70
2023-01-04T13:22:57.301Z,78.00
2023-01-04T13:25:26.737Z,77.40
2023-01-04T13:27:59.655Z,69.80
2023-01-04T13:30:33.593Z,67.00
2023-01-04T13:33:27.786Z,69.80
2023-01-04T13:36:14.781Z,74.30
2023-01-04T13:38:43.204Z,77.30
2023-01-04T13:41:24.230Z,78.70
2023-01-04T13:44:14.701Z,70.00
2023-01-04T13:46:44.347Z,67.50
2023-01-04T13:49:16.873Z,69.30
2023-01-04T13:51:45.320Z,74.20
2023-01-04T13:54:24.196Z,76.20
2023-01-04T13:56:55.729Z,77.60
2023-01-04T13:59:24.485Z,77.50
2023-01-04T14:01:53.216Z,69.90
2023-01-04T14:04:29.164Z,67.00
2023-01-04T14:07:02.081Z,71.60
2023-01-04T14:09:35.006Z,75.00
2023-01-04T14:12:14.482Z,76.90
2023-01-04T14:15:02.398Z,77.10
2023-01-04T14:17:33.587Z,69.10
2023-01-04T14:20:27.582Z,66.40
2023-01-04T14:22:58.099Z,72.20
2023-01-04T14:25:32.626Z,75.00
2023-01-04T14:28:19.846Z,77.00
2023-01-04T14:30:51.239Z,76.30
2023-01-04T14:33:29.946Z,69.30
2023-01-04T14:36:07.228Z,66.50
2023-01-04T14:38:53.870Z,70.60
2023-01-04T14:41:27.145Z,74.70
2023-01-04T14:44:16.887Z,76.80
2023-01-04T14:46:48.852Z,76.50
2023-01-04T14:49:17.548Z,69.10
2023-01-04T14:51:48.411Z,66.90
2023-01-04T14:54:24.358Z,66.90
2023-01-04T14:56:54.952Z,73.20
2023-01-04T14:59:24.431Z,75.60
2023-01-04T15:01:57.620Z,76.90
2023-01-04T15:04:26.181Z,70.20
2023-01-04T15:07:00.811Z,66.60
2023-01-04T15:09:30.282Z,65.00
2023-01-04T15:11:58.527Z,72.00
2023-01-04T15:14:27.005Z,74.60
2023-01-04T15:16:55.408Z,76.20
2023-01-04T15:19:23.716Z,70.20
2023-01-04T15:21:52.100Z,66.40
2023-01-04T15:24:20.498Z,64.60
2023-01-04T15:26:48.785Z,69.50
2023-01-04T15:29:17.061Z,73.10
2023-01-04T15:31:45.610Z,75.10
2023-01-04T15:34:15.003Z,72.70
2023-01-04T15:36:43.432Z,66.50
2023-01-04T15:39:15.335Z,64.50
2023-01-04T15:41:43.761Z,65.50
2023-01-04T15:44:12.203Z,71.70
2023-01-04T15:46:40.593Z,73.90
2023-01-04T15:49:15.002Z,75.20
2023-01-04T15:51:43.363Z,67.40
2023-01-04T15:54:11.933Z,64.70
2023-01-04T15:56:40.660Z,63.10
2023-01-04T15:59:08.687Z,68.10
2023-01-04T16:01:37.179Z,71.80
2023-01-04T16:04:07.523Z,74.00
2023-01-04T16:06:35.783Z,70.60
2023-01-04T16:09:04.278Z,65.10
2023-01-04T16:11:33.187Z,62.90
2023-01-04T16:14:01.720Z,63.60
2023-01-04T16:16:30.208Z,70.00
2023-01-04T16:18:58.612Z,72.60
2023-01-04T16:21:28.832Z,73.50
2023-01-04T16:24:06.990Z,65.90
2023-01-04T16:26:38.272Z,63.20
2023-01-04T16:29:06.540Z,61.80
2023-01-04T16:31:36.308Z,68.90
2023-01-04T16:34:05.743Z,71.90
2023-01-04T16:36:34.003Z,73.50
2023-01-04T16:39:02.846Z,66.00
2023-01-04T16:41:31.234Z,63.10
2023-01-04T16:44:00.885Z,61.50
2023-01-04T16:46:30.449Z,63.40
2023-01-04T16:49:02.571Z,69.30
2023-01-04T16:51:32.865Z,71.70
2023-01-04T16:54:03.615Z,73.30
2023-01-04T16:56:33.260Z,65.60
2023-01-04T16:59:02.119Z,62.60
2023-01-04T17:01:34.813Z,61.10
2023-01-04T17:04:08.194Z,66.90
2023-01-04T17:06:44.852Z,70.60
2023-01-04T17:09:19.169Z,72.50
2023-01-04T17:14:36.390Z,62.20
2023-01-04T17:17:04.498Z,60.20
2023-01-04T17:19:32.668Z,67.00
2023-01-04T17:22:00.943Z,70.40
2023-01-04T17:24:29.286Z,71.90
2023-01-04T17:26:57.509Z,65.50
2023-01-04T17:29:25.696Z,61.80
2023-01-04T17:31:54.026Z,60.40
2023-01-04T17:34:23.184Z,63.50
2023-01-04T17:36:51.849Z,68.80
2023-01-04T17:39:20.133Z,70.80
2023-01-04T17:41:48.353Z,67.20
2023-01-04T17:44:16.713Z,62.30
2023-01-04T17:46:44.867Z,60.50
2023-01-04T17:49:31.996Z,63.70
2023-01-04T17:52:00.826Z,68.80
2023-01-04T17:54:29.130Z,71.70
2023-01-04T17:56:57.385Z,68.40
2023-01-04T17:59:25.563Z,62.90
2023-01-04T18:01:53.961Z,61.10
2023-01-04T18:04:22.295Z,64.60
2023-01-04T18:06:50.605Z,69.10
2023-01-04T18:09:22.231Z,71.20
2023-01-04T18:11:52.717Z,71.80
2023-01-04T18:14:20.875Z,64.00
2023-01-04T18:16:49.226Z,61.50
2023-01-04T18:19:17.565Z,64.60
2023-01-04T18:21:45.869Z,69.40
2023-01-04T18:24:35.399Z,71.40
2023-01-04T18:27:20.973Z,72.90
2023-01-04T18:29:51.263Z,64.70
2023-01-04T18:32:19.785Z,62.10
2023-01-04T18:34:47.994Z,63.90
2023-01-04T18:37:16.637Z,68.90
2023-01-04T18:39:44.729Z,71.10
2023-01-04T18:42:12.910Z,72.70
2023-01-04T18:44:47.402Z,66.90
2023-01-04T18:47:18.016Z,62.80
2023-01-04T18:49:46.383Z,61.50
2023-01-04T18:52:15.043Z,66.50
2023-01-04T18:54:43.279Z,69.90
2023-01-04T18:57:12.139Z,71.90
2023-01-04T18:59:41.560Z,70.30
2023-01-04T19:02:16.078Z,63.90
2023-01-04T19:04:44.750Z,61.60
2023-01-04T19:07:13.187Z,64.20
2023-01-04T19:09:42.285Z,69.20
2023-01-04T19:12:11.108Z,70.90
2023-01-04T19:14:40.661Z,72.60
2023-01-04T19:17:10.268Z,65.20
2023-01-04T19:19:38.581Z,62.20
2023-01-04T19:22:06.806Z,61.20
2023-01-04T19:24:35.062Z,68.40
2023-01-04T19:27:03.482Z,70.90
2023-01-04T19:29:32.528Z,72.50
2023-01-04T19:32:00.868Z,69.90
2023-01-04T19:34:29.437Z,63.80
2023-01-04T19:36:57.845Z,61.50
2023-01-04T19:39:26.017Z,65.40
2023-01-04T19:41:54.262Z,69.70
2023-01-04T19:44:22.768Z,71.60
2023-01-04T19:46:50.865Z,73.10
2023-01-04T19:49:19.231Z,65.20
2023-01-04T19:51:49.426Z,62.00
2023-01-04T19:54:24.509Z,63.30
2023-01-04T19:56:54.352Z,69.30
2023-01-04T19:59:22.916Z,71.50
2023-01-04T20:01:51.348Z,72.90
2023-01-04T20:04:20.253Z,68.40
2023-01-04T20:06:48.256Z,63.40
2023-01-04T20:09:17.008Z,61.70
2023-01-04T20:11:45.264Z,67.10
2023-01-04T20:14:13.491Z,70.30
2023-01-04T20:16:41.802Z,72.30
2023-01-04T20:19:10.062Z,71.10
2023-01-04T20:21:38.367Z,63.90
2023-01-04T20:24:08.022Z,61.60
2023-01-04T20:26:36.958Z,67.00
2023-01-04T20:29:05.829Z,70.10
2023-01-04T20:31:34.164Z,72.20
2023-01-04T20:34:02.618Z,71.60
2023-01-04T20:36:30.870Z,64.30
2023-01-04T20:38:59.995Z,62.00
2023-01-04T20:41:29.374Z,66.10
2023-01-04T20:43:57.638Z,70.10
2023-01-04T20:46:28.739Z,72.10
2023-01-04T20:48:57.189Z,73.20
2023-01-04T20:51:27.099Z,65.20
2023-01-04T20:53:56.541Z,62.20
2023-01-04T20:56:27.889Z,62.70
2023-01-04T20:58:56.695Z,69.10
2023-01-04T21:01:25.193Z,71.50
2023-01-04T21:03:53.578Z,73.40
2023-01-04T21:06:22.509Z,68.40
2023-01-04T21:08:51.626Z,63.30
2023-01-04T21:11:20.230Z,61.50
2023-01-04T21:13:51.672Z,67.10
2023-01-04T21:16:20.206Z,70.80
2023-01-04T21:18:48.666Z,72.60
2023-01-04T21:21:18.825Z,70.90
2023-01-04T21:23:51.728Z,64.10
2023-01-04T21:26:23.230Z,61.70
2023-01-04T21:28:51.595Z,68.40
2023-01-04T21:31:25.285Z,71.10
2023-01-04T21:33:54.862Z,72.90
2023-01-04T21:36:28.399Z,70.10
2023-01-04T21:38:59.382Z,63.50
2023-01-04T21:41:27.832Z,62.00
2023-01-04T21:43:58.680Z,65.30
2023-01-04T21:46:27.859Z,70.10
2023-01-04T21:49:01.263Z,71.90
2023-01-04T21:51:30.291Z,73.50
2023-01-04T21:53:58.911Z,67.30
2023-01-04T21:56:26.916Z,63.00
2023-01-04T21:58:55.352Z,61.10
2023-01-04T22:01:32.359Z,68.00
2023-01-04T22:04:03.027Z,70.90
2023-01-04T22:06:31.434Z,72.90
2023-01-04T22:08:59.983Z,73.50
2023-01-04T22:11:28.136Z,65.10
2023-01-04T22:13:56.929Z,62.80
2023-01-04T22:16:25.380Z,61.80
2023-01-04T22:18:53.704Z,69.00
2023-01-04T22:21:23.180Z,71.40
2023-01-04T22:23:52.133Z,73.20
2023-01-04T22:26:20.633Z,68.60
2023-01-04T22:28:48.918Z,63.30
2023-01-04T22:31:17.275Z,61.60
2023-01-04T22:33:45.651Z,68.30
2023-01-04T22:36:22.250Z,71.00
2023-01-04T22:38:53.733Z,72.80
2023-01-04T22:41:24.114Z,73.90
2023-01-04T22:44:13.076Z,65.80
2023-01-04T22:46:41.428Z,62.60
2023-01-04T22:49:11.120Z,63.60
2023-01-04T22:51:39.823Z,70.00
2023-01-04T22:54:09.686Z,71.90
2023-01-04T22:56:38.119Z,73.40
2023-01-04T22:59:06.431Z,70.30
2023-01-04T23:01:43.535Z,64.30
2023-01-04T23:04:16.739Z,62.00
2023-01-04T23:06:45.535Z,67.80
2023-01-04T23:09:14.850Z,71.10
2023-01-04T23:11:43.919Z,72.90
2023-01-04T23:14:17.691Z,74.00
2023-01-04T23:16:46.315Z,66.50
2023-01-04T23:19:15.156Z,63.50
2023-01-04T23:21:43.176Z,63.10
2023-01-04T23:24:16.000Z,69.90
2023-01-04T23:26:44.895Z,72.30
2023-01-04T23:29:13.338Z,73.60
2023-01-04T23:31:42.068Z,72.30
2023-01-04T23:34:11.549Z,65.10
2023-01-04T23:36:41.533Z,62.80
2023-01-04T23:39:13.812Z,68.80
2023-01-04T23:41:42.988Z,71.90
2023-01-04T23:44:13.821Z,73.80
2023-01-04T23:46:42.623Z,75.40
2023-01-04T23:49:12.132Z,67.40
2023-01-04T23:51:40.857Z,62.80
2023-01-04T23:54:08.887Z,68.40
2023-01-04T23:56:37.406Z,71.40
2023-01-04T23:59:06.284Z,73.60
